x

Nantucket 54nm Southeast Of Nantucket (44008) Wave Buoy

4:50am - Mon 27th Apr 2015 All times are EDT. -4 hours from GMT.

  • Sig Wave height 2.3ft
  • Swell Direction
  • Peak Period 10s
  • Average Period 5s
  • Wind
    13mph, 16mph gusts
  • Sea Temp 45°f
  • Air Temp 45°f
  • Sea Pressure 1000.9mb
  • Nantucket 54nm Southeast Of Nantucket
  • Nantucket 54nm Southeast Of Nantucket

More Historic Weather Station data

Upgrade to MSW Pro to gain access to the past 30 days of data for over 8000 Wavebouys and Weather Stations around the globe.

Join Pro

Comparision Forecast

View Surf forecast
   
Mon 04/27 4:50am 2.5ft 10s 5s 13 16 mph 1000.9mb 45f 45f
3:50am 2ft 10s 5s 13 16 mph 1001.2mb 45f 45f
2:50am 2ft 10s 6s 13 16 mph 1001.6mb 44f 45f
1:50am 2ft 10s 6s 9 11 mph 1002.2mb 44f 45f
12:50am 2ft 11s 6s 7 9 mph 1002.7mb 44f 44f
Sun 04/26 11:50pm 2ft 10s 6s 7 9 mph 1002.9mb 44f 44f
10:50pm 2ft 9s 6s 7
mph
1003mb 45f 44f
9:50pm 2ft 11s 6s 7 9 mph 1003.5mb 45f 44f
8:50pm 2ft 10s 6s 9
mph
1003.8mb 45f 44f
7:50pm 2ft 10s 6s 9 11 mph 1003.8mb 45f 44f
6:50pm 2ft 10s 6s 9
mph
1003.5mb 45f 45f
5:50pm 2.5ft 11s 6s 4 7 mph 1003.4mb 45f 45f
4:50pm 2.5ft 11s 6s 7 9 mph 1003.3mb 45f 45f
3:50pm 2.5ft 11s 5s 7 9 mph 1003.3mb 45f 44f
2:50pm 2.5ft 11s 6s 7
mph
1003.3mb 45f 44f
1:50pm 2.5ft 11s 5s 9
mph
1003.3mb 44f 44f
12:50pm 2.5ft 10s 6s 9 11 mph 1003.4mb 44f 43f
11:50am 2.5ft 6s 5s 9
mph
1003.6mb 44f 43f
10:50am 3ft 6s 6s 7 9 mph 1003.8mb 44f 43f
9:50am 3ft 6s 5s 4 7 mph 1003.9mb 44f 43f
8:50am 3ft 6s 5s 4 7 mph 1003.9mb 43f 43f
7:50am 3.5ft 11s 6s 4
mph
1004mb 43f 43f
6:50am 3.5ft 11s 5s 2 4 mph 1004.1mb 44f 43f
5:50am 3.5ft 11s 5s 4 7 mph 1003.8mb 43f 42f
4:50am 3.5ft 5s 5s 4 7 mph 1003.7mb 43f 43f
3:50am 3.5ft 6s 5s 7
mph
1003.8mb 43f 43f
2:50am 3.5ft 6s 5s 4 7 mph 1004.3mb 43f 42f
1:50am 3.5ft 6s 5s 2 4 mph 1005.2mb 42f 42f
12:50am 4ft 7s 5s  -  2 mph 1005.6mb 42f 42f
Sat 04/25 11:50pm 4ft 6s 5s 4 7 mph 1005.9mb 42f 43f
10:50pm 4.5ft 6s 5s 4 7 mph 1006.3mb 42f 43f
9:50pm 4.5ft 6s 5s 7 9 mph 1006.7mb 42f 42f
8:50pm 4.5ft 6s 5s 11
mph
1007.1mb 43f 43f
7:50pm 4.5ft 6s 5s 11 13 mph 1007mb 43f 42f
6:50pm 5ft 6s 5s 11
mph
1006.9mb 44f 43f
5:50pm 5ft 7s 5s 11 13 mph 1007mb 44f 43f
4:50pm 5.5ft 7s 5s 16 18 mph 1006.6mb 44f 42f
3:50pm 5ft 6s 5s 18 20 mph 1007.3mb 43f 41f
2:50pm 5ft 6s 5s 18 20 mph 1007mb 43f 41f
1:50pm 5.5ft 7s 5s 16 20 mph 1007.7mb 43f 41f
12:50pm 5.5ft 7s 6s 16 22 mph 1007.8mb 42f 41f
11:50am 6ft 7s 6s 13 18 mph 1008mb 42f 41f
10:50am 5.5ft 7s 5s 18 20 mph 1008mb 42f 41f
9:50am 6ft 7s 5s 16 20 mph 1007.9mb 42f 41f
8:50am 7ft 6s 6s 18 20 mph 1008.2mb 42f 41f
7:50am 7ft 6s 5s 16 20 mph 1008.7mb 42f 41f
6:50am 5.5ft 7s 5s 20 22 mph 1008.6mb 42f 41f
5:50am 6ft 7s 5s 16 20 mph 1007.8mb 42f 41f
4:50am 6ft 7s 5s 18 20 mph 1007.4mb 42f 42f
3:50am 6ft 7s 5s 16 18 mph 1007.2mb 42f 42f
2:50am 5.5ft 7s 5s 16 20 mph 1007.5mb 42f 43f
1:50am 6.5ft 8s 6s 20 22 mph 1007.1mb 42f 43f
12:50am 7ft 7s 6s 22 27 mph 1007.3mb 42f 43f
Fri 04/24 11:50pm 7ft 7s 6s 20 25 mph 1007.3mb 42f 43f
10:50pm 6.5ft 7s 5s 22 27 mph 1007.3mb 42f 43f
9:50pm 6ft 7s 5s 25 29 mph 1007.4mb 42f 43f
8:50pm 6ft 7s 5s 22 27 mph 1007.2mb 42f 43f
7:50pm 6ft 7s 5s 22 25 mph 1006.9mb 42f 43f
6:50pm 6ft 7s 5s 20 27 mph 1006.8mb 42f 43f
5:50pm 5.5ft 6s 5s 20 25 mph 1006.6mb 42f 42f
4:50pm 6ft 7s 5s 20 22 mph 1006.3mb 43f 42f
3:50pm 6.5ft 7s 6s 18 22 mph 1006.1mb 43f 41f
2:50pm 7ft 7s 6s 20 22 mph 1006.3mb 43f 41f
1:50pm 7ft 7s 6s 20 25 mph 1006.4mb 42f 41f
12:50pm 7ft 8s 6s 20 25 mph 1006.3mb 42f 41f
11:50am 7ft 7s 6s 20 25 mph 1006.4mb 42f 41f
10:50am 7ft 8s 6s 20 25 mph 1006.4mb 42f 41f
9:50am 7ft 7s 6s 20 25 mph 1006.2mb 42f 41f
8:50am 6ft 7s 6s 20 25 mph 1006.2mb 42f 41f
7:50am 7ft 7s 6s 20 25 mph 1006.3mb 42f 41f
6:50am 7ft 7s 6s 22 27 mph 1006.2mb 42f 41f
5:50am 7ft 7s 5s 22 27 mph 1005.7mb 42f 41f
4:50am 7ft 6s 5s 22 27 mph 1005.4mb 42f 41f
3:50am 7ft 7s 5s 25 29 mph 1005.3mb 42f 41f
2:50am 7ft 7s 6s 27 31 mph 1005.3mb 42f 41f
1:50am 7ft 7s 6s 25 29 mph 1005.1mb 42f 42f
12:50am 7ft 8s 6s 22 27 mph 1005.3mb 42f 43f
Thu 04/23 11:50pm 7ft 8s 6s 16 20 mph 1005.6mb 42f 43f
10:50pm 7ft 8s 6s 20 25 mph 1005.4mb 42f 44f
9:50pm 8ft 8s 6s 18 22 mph 1005.7mb 42f 44f
8:50pm 8ft 8s 6s 18 22 mph 1005.6mb 42f 44f
7:50pm 7.5ft 8s 6s 22 27 mph 1005.3mb 42f 44f
6:50pm 8ft 8s 6s 22 27 mph 1004.9mb 42f 44f
5:50pm 8ft 7s 6s 22 25 mph 1004.7mb 43f 44f
4:50pm 8ft 7s 6s 25 31 mph 1004.4mb 43f 44f
3:50pm 8.5ft 7s 6s 27 31 mph 1004.1mb 43f 44f
2:50pm 8.5ft 8s 6s 27 31 mph 1004mb 43f 44f
1:50pm 8.5ft 7s 6s 22 29 mph 1004.3mb 43f 43f
12:50pm 7ft 7s 6s 22 27 mph 1004.5mb 42f 43f
11:50am 8ft 7s 6s 22 27 mph 1004.7mb 42f 43f
10:50am 7ft 6s 6s 22 27 mph 1004.5mb 42f 43f
9:50am 7ft 7s 6s 22 27 mph 1004.1mb 43f 44f